Mason Valley Wildlife Refuge, Nevada Weather observations

Data are for 10 minute period ending at time listed.
 Day   Time   Solar   Ave.   Ave.  Ave.  Vector  Max.   Baro.   Total    
  of    of     Rad.   Air    Rel.  Wind   Wind   Wind  Press.  Precip.   
Year   Day            Temp.  Hum.  Speed  Dir.   Gust                    
2016   (PST)  Kw/m2    F      %     mph   deg.    mph    mb.     in.     
-------------------------------------------------------------------------
 205    6:50   0.27   66.7    22    2.4   281     4.1   872.7    0.00 
 205    7:00   0.30   68.8    20    1.9   279     3.9   872.6    0.00 
 205    7:10   0.33   68.4    22    2.4   243     3.6   872.7    0.00 
 205    7:20   0.36   68.8    26    2.7   235     4.5   872.6    0.00 
 205    7:30   0.39   69.9    22    2.7   235     5.0   872.6    0.00 
 205    7:40   0.42   71.1    20    2.9   246     5.1   872.5    0.00 
 205    7:50   0.45   72.6    18    2.4   252     4.5   872.4    0.00 
 205    8:00   0.48   73.7    16    2.4   252     4.5   872.3    0.00 
 205    8:10   0.52   74.4    16    1.9   209     3.4   872.2    0.00 
 205    8:20   0.55   75.0    16    2.5   213     4.5   872.2    0.00 
 205    8:30   0.57   75.9    17    2.4   220     3.7   872.1    0.00 
 205    8:40   0.60   77.4    14    2.0   230     3.4   872.0    0.00 
 205    8:50   0.63   78.9    15    1.8   231     4.6   871.9    0.00 
 205    9:00   0.66   80.4    14    1.6   245     4.2   871.8    0.00 
 205    9:10   0.68   80.7    13    1.7   211     4.4   871.8    0.00 
 205    9:20   0.71   80.6    12    3.8    80     9.2   871.8    0.00 
 205    9:30   0.73   80.6    12    2.8    26     6.4   871.7    0.00 
 205    9:40   0.75   81.5    12    3.2   324     6.2   871.6    0.00 
 205    9:50   0.77   81.8    12    4.4    87     9.9   871.6    0.00 
 205   10:00   0.79   82.9    12    2.9    30     8.7   871.7    0.00 
 205   10:10   0.81   82.8    11    3.7    71     7.6   871.7    0.00 
 205   10:20   0.83   83.5    11    3.7    57    10.6   871.7    0.00 
 205   10:30   0.85   83.0    11    4.9    87    10.0   871.6    0.00 
 205   10:40   0.86   84.0    11    2.9    66     7.7   871.5    0.00 
 205   10:50   0.88   84.7    10    4.9    44    11.6   871.4    0.00 
 205   11:00   0.89   85.3    10    2.7    73     9.8   871.2    0.00 
 205   11:10   0.90   85.4    10    4.4   104    11.6   871.2    0.00 
 205   11:20   0.91   86.7    10    4.1   164     9.6   871.1    0.00 
 205   11:30   0.92   85.9    10    4.7     8    11.7   871.0    0.00 
 205   11:40   0.92   86.4    10    4.3    42    11.1   871.0    0.00 
 205   11:50   0.93   87.2     9    5.2    11    10.8   870.9    0.00 
 205   12:00   0.93   87.6     9    5.9   323    10.1   870.8    0.00 
 205   12:10   0.93   87.9     9    5.0    28    11.7   870.8    0.00 
 205   12:20   0.93   88.3     9    3.4     2     8.6   870.7    0.00 
 205   12:30   0.93   88.3     9    5.1    76    10.6   870.6    0.00 
 205   12:40   0.93   88.2     9    5.3    30    13.2   870.5    0.00 
 205   12:50   0.93   88.7     9    5.4    44    10.6   870.4    0.00 
 205   13:00   0.92   89.2     8    6.7    24    12.6   870.2    0.00 
 205   13:10   0.92   89.3     8    5.7    46    11.4   870.1    0.00 
 205   13:20   0.91   89.7     8    5.7    58    13.0   870.0    0.00 
 205   13:30   0.90   90.3     8    7.1    75    15.6   869.9    0.00 
 205   13:40   0.89   90.5     8    7.0    56    12.3   869.8    0.00 
 205   13:50   0.88   90.2     8    7.8    52    14.9   869.7    0.00 
 205   14:00   0.86   91.1     7    7.3    91    13.7   869.5    0.00 
 205   14:10   0.84   91.5     7    6.7    84    14.5   869.5    0.00 
 205   14:20   0.83   91.8     7    5.8    56    11.6   869.3    0.00 
 205   14:30   0.81   92.1     7    6.2    64    11.5   869.2    0.00 
 205   14:40   0.79   92.3     7    6.4    12    12.7   869.1    0.00 
 205   14:50   0.77   92.1     7    6.9     7    11.5   869.1    0.00 
 205   15:00   0.75   92.4     7    7.0    37    11.1   869.1    0.00 
 205   15:10   0.72   92.5     6    5.3    61    11.4   868.9    0.00 
 205   15:20   0.70   92.6     7    5.3    37    13.7   868.8    0.00 
 205   15:30   0.68   92.7     7    7.2   355    15.6   868.7    0.00 
 205   15:40   0.65   93.1     7    4.0    23    10.2   868.6    0.00 
 205   15:50   0.62   93.0     7    4.8    54     9.5   868.5    0.00 
 205   16:00   0.59   92.9     7    5.5    16     9.3   868.4    0.00 
 205   16:10   0.56   92.8     7    7.3    26    12.6   868.4    0.00 
 205   16:20   0.53   92.7     7    6.9    59    11.2   868.2    0.00 
 205   16:30   0.50   92.3     7    8.4    51    13.8   868.2    0.00 
 205   16:40   0.47   92.0     7   10.4    35    18.2   868.0    0.00 
 205   16:50   0.44   92.2     7    7.0    17    11.2   867.9    0.00 
 205   17:00   0.41   92.1     7    8.6    27    12.3   867.8    0.00 
 205   17:10   0.37   92.1     8    7.8    40    12.3   867.7    0.00 
 205   17:20   0.34   91.8     7    8.2    38    13.9   867.7    0.00 
 205   17:30   0.31   91.3     8    7.8    37    13.7   867.6    0.00 
 205   17:40   0.28   91.1     8    7.7    40    13.4   867.6    0.00 
 205   17:50   0.24   90.5     8    7.8    49    12.6   867.5    0.00 
 205   18:00   0.21   89.7     9    6.7    55    10.1   867.5    0.00 
 205   18:10   0.18   89.3     9    5.6    49     9.5   867.5    0.00 
 205   18:20   0.15   88.8    10    6.7    51    10.7   867.5    0.00 
 205   18:30   0.12   87.7    10    6.6    51    11.7   867.5    0.00 
 205   18:40   0.10   86.4    11    4.9    47     7.2   867.6    0.00 
 205   18:50   0.05   85.4    12    4.4    58     7.0   867.5    0.00 
 205   19:00   0.02   83.9    12    4.2    44     7.2   867.4    0.00 
 205   19:10   0.01   83.6    10    6.2    32     9.7   867.4    0.00 
 205   19:20   0.01   82.7    10    5.2    20     8.5   867.3    0.00 
 205   19:30   0.00   80.8    10    4.8    29     7.6   867.3    0.00 
 205   19:40   0.00   79.9    11    3.8    18     5.3   867.3    0.00 
 205   19:50   0.00   76.6    12    3.4     7     5.2   867.3    0.00 
 205   20:00   0.00   77.4    12    2.4     5     3.9   867.5    0.00 
 205   20:10   0.00   77.4    13    2.0    86     5.0   867.7    0.00 
 205   20:20   0.00   74.9    19    2.2   208     4.2   867.9    0.00 
 205   20:30   0.00   74.8    17    1.9   200     3.4   868.2    0.00 
 205   20:40   0.00   74.5    18    2.6   272     4.2   868.4    0.00 
 205   20:50   0.00   73.5    15    2.6   284     4.1   868.5    0.00 
 205   21:00   0.00   74.6    14    0.9   131     4.1   868.6    0.00 
 205   21:10   0.00   72.2    20    1.0   237     2.6   868.7    0.00 
 205   21:20   0.00   69.5    26    0.5   228     2.0   868.6    0.00 
 205   21:30   0.00   65.8    28    3.8   176     5.3   868.7    0.00 
 205   21:40   0.00   65.6    26    4.1   223     5.0   868.8    0.00 
 205   21:50   0.00   68.6    23    4.6   254     5.8   868.8    0.00 
 205   22:00   0.00   66.8    30    2.5   223     4.9   868.8    0.00 
 205   22:10   0.00   63.6    40    3.3   200     5.2   868.9    0.00 
 205   22:20   0.00   65.2    31    4.3   234     5.8   868.8    0.00 
 205   22:30   0.00   65.9    29    1.4   221     4.5   869.0    0.00 
 205   22:40   0.00   62.3    24    2.6   126     4.3   869.1    0.00 
 205   22:50   0.00   59.7    28    1.6   165     2.6   869.1    0.00 
 205   23:00   0.00   58.9    36    0.9   121     4.2   869.0    0.00 
 205   23:10   0.00   55.8    33    1.8   120     4.2   869.1    0.00 
 205   23:20   0.00   55.5    32    0.2    95     1.6   869.1    0.00 
 205   23:30   0.00   57.1    32    0.5    90     1.7   869.0    0.00 
 205   23:40   0.00   58.4    31    0.8   330     3.8   869.0    0.00 
 205   23:50   0.00   54.1    34    3.1   146     4.2   869.0    0.00 
 206    0:00   0.00   54.0    38    1.1   177     2.5   868.8    0.00 
 206    0:10   0.00   54.4    37    1.4   175     2.2   868.8    0.00 
 206    0:20   0.00   55.6    44    0.8   186     1.7   868.8    0.00 
 206    0:30   0.00   54.1    47    1.5   176     3.3   868.7    0.00 
 206    0:40   0.00   53.0    36    2.5   160     3.3   868.7    0.00 
 206    0:50   0.00   53.0    37    2.1   159     2.6   868.6    0.00 
 206    1:00   0.00   52.5    40    2.9   132     3.9   868.6    0.00 
 206    1:10   0.00   51.0    42    3.0   144     5.6   868.6    0.00 
 206    1:20   0.00   51.8    45    2.9   159     4.2   868.6    0.00 
 206    1:30   0.00   53.3    45    2.3   171     4.7   868.6    0.00 
 206    1:40   0.00   54.0    45    1.7   177     3.3   868.5    0.00 
 206    1:50   0.00   54.7    41    2.6   184     3.7   868.5    0.00 
 206    2:00   0.00   54.7    39    3.7   214     5.3   868.5    0.00 
 206    2:10   0.00   54.6    46    1.3   180     2.9   868.5    0.00 
 206    2:20   0.00   51.2    40    1.3    72     3.9   868.6    0.00 
 206    2:30   0.00   48.2    45    3.4    35     5.5   868.8    0.00 
 206    2:40   0.00   48.2    52    3.0   254     4.6   868.6    0.00 
 206    2:50   0.00   47.4    53    1.7   234     2.9   868.6    0.00 
 206    3:00   0.00   49.3    48    1.0   152     4.8   868.6    0.00 
 206    3:10   0.00   50.5    45    1.0   285     2.8   868.7    0.00 
 206    3:20   0.00   49.3    46    1.7   279     3.9   868.8    0.00 
 206    3:30   0.00   51.4    47    2.3   247     3.9   868.8    0.00 
 206    3:40   0.00   49.0    50    1.5    71     3.5   868.8    0.00 
 206    3:50   0.00   47.0    48    2.2    63     5.0   868.9    0.00 
 206    4:00   0.00   45.4    52    2.5    56     3.7   868.9    0.00 
 206    4:10   0.00   46.6    58    1.8   138     3.1   868.9    0.00 
 206    4:20   0.00   47.0    56    1.6   151     6.6   868.9    0.00 
 206    4:30   0.00   49.0    51    2.3    53     8.3   869.0    0.00 
 206    4:40   0.00   47.5    56    1.3   227     2.7   869.1    0.00 
 206    4:50   0.00   45.7    64    0.9   184     2.3   869.2    0.00 
 206    5:00   0.01   44.9    56    1.9   130     3.3   869.3    0.00 
 206    5:10   0.02   46.0    53    2.6   132     4.2   869.3    0.00 
 206    5:20   0.04   47.9    48    3.5   135     6.1   869.3    0.00 
 206    5:30   0.06   52.1    40    1.7    92     3.7   869.4    0.00 
 206    5:40   0.08   52.7    42    1.8   135     2.6   869.5    0.00 
 206    5:50   0.10   54.2    41    0.4   139     1.6   869.6    0.00 
 206    6:00   0.12   56.1    37    0.1   200     1.2   869.7    0.00 
 206    6:10   0.15   59.3    32    0.2    27     1.2   869.9    0.00 
 206    6:20   0.17   60.7    30    0.4   311     1.7   869.9    0.00 
 206    6:30   0.20   64.2    27    0.2    23     1.2   870.0    0.00 
 206    6:40   0.23   66.0    25    0.7    21     1.9   870.1    0.00 

Return to Mason Valley Wildlife Refuge graphs page.


Western Regional Climate Center,wrcc@dri.edu